Aérodrome :
LOGIN :

S'inscrire | Disclaimer

   EN    FR    IT 

 










Légende :    VFR   VFR Marginal   IFR   IFR Intensif   IFR Très Intensif
Visi : 
Plafond : 
>= 8 km
>= 3000ft
5 à 8 km
1000 à 3000 ft
1500m à 5 km
500 à 1000 ft
800 à 1500m
200 à 500 ft
< 800m
< 200 ft
Symboles :   Orages  Brouillard  Fortes neiges  Fortes précipitations  Vent > 20 kt
SIGMETs :   Divers  Orages  Givrage  Turbulence  Onde Orograph.  Cendres Volcan.






- Altitude de l'aérodrome : 80 ft
- Code IATA : LPL


EGGP - Liverpool John Lennon

METARs EXPIRÉS :
  • 011620Z 24016KT 9999 VCSH FEW030 SCT042 18/08 Q1014
  • 012150Z 17009KT 9999 VCSH SCT021 BKN030 14/11 Q1015
  • 012120Z 17011KT 9000 -RA SCT012 BKN020 14/12 Q1015
  • 012050Z 18010KT 9000 -RA FEW010 BKN019 BKN033 14/12 Q1014
  • 012020Z 18013KT 9999 -DZ FEW010 BKN025 14/12 Q1014
  • 010550Z 14003KT 100V170 9999 FEW040 13/11 Q1013
  • 011950Z 19010KT 9999 -SHRA BKN025 BKN029 14/12 Q1014

TAF TAF EGGP
Valide du 01 à 18h jusqu'au 02 à 18h UTC


011658Z 0118/0218 23013KT 9999 SCT030
TEMPO 0119/0206 7000 RA SHRA BKN014
PROB30
TEMPO 0120/0124 4000 RADZ BKN008
PROB30
TEMPO 0200/0204 4000 +RA +SHRA BKN008
BECMG 0202/0205 22003KT
PROB30
TEMPO 0208/0218 7000 SHRA
BECMG 0209/0212 27013KT
ATIS : +44 151 907 2000 (option 5 or ext 5150)
Météo : +44 871 750 5150



MET'MAP, la Météo Aéronautique d'un coup d'oeil ! - Copyright ORBIFLY Décembre 2007 - Disclaimer

ORBIFLY MET'MAP TEAM :

Programmation & Développement : Alexandra Zaïnal
Sur une idée originale de : Baudouin d'Aumeries
Soutien technique & logistique : Manuel Goepfert
Assistance : Marc-Olivier Méhu




SOURCES & CREDITS :

   NOAA